Payne Gap, Kentucky
Current Conditions -  °F | °C
As of 5:15 AM on Sunday 25 Jan 2015 (Local Time) from KLNP Reporting Station
Clear Clear  
Wind Chill: 24°   Ceiling: Unl
Heat Index: 32°   Visibility: 10mi
Dew Point: 27°   Wind: 9mph
Humidity: 80%   Direction: 210°SSW
Pressure: 29.81"   Gusts: NA
Location:  37.1955°N, 82.6325°W
Report Text: KLNP 251015Z AUTO 21008KT 10SM CLR 00/M03 A2981 RMK AO2
Loading
Personal Weather Stations






























Interactive Weather Map New forecast layout! Learn more

10-Day Weather Forecast

Advertisements
Track Severe Weather on mobile